Time;durP1;ratioP1;P1;durP2;ratioP2;P2;SDS_P1;SDS_P2;PMS_P1;PMS_P2;Temp;Humidity;BMP_temperature;BMP_pressure;BME280_temperature;BME280_humidity;BME280_pressure;Samples;Min_cycle;Max_cycle;Signal;HPM_P1;HPM_P2
2022/07/26 00:01:31;;;;;;;;;2.00;2.00;;;;;23.10;47.05;101062.78;4863669;29;45453;-63
2022/07/26 00:03:57;;;;;;;;;2.00;2.00;;;;;23.33;46.86;101085.63;4863595;29;45664;-62
2022/07/26 00:06:22;;;;;;;;;1.00;1.00;;;;;23.31;47.18;101096.25;4880140;29;46052;-64
2022/07/26 00:08:48;;;;;;;;;1.75;1.00;;;;;23.22;47.32;101078.38;4880280;29;45426;-62
2022/07/26 00:11:14;;;;;;;;;1.00;1.00;;;;;23.08;47.26;101075.38;4863914;29;45406;-63
2022/07/26 00:13:39;;;;;;;;;1.20;1.20;;;;;23.24;47.21;101098.53;4880596;29;45416;-63
2022/07/26 00:16:05;;;;;;;;;1.00;1.00;;;;;23.20;47.66;101091.84;4880365;29;46524;-63
2022/07/26 00:18:30;;;;;;;;;0.25;0.25;;;;;23.06;47.58;101077.63;4847864;29;45474;-63
2022/07/26 00:20:56;;;;;;;;;2.25;1.00;;;;;23.20;47.56;101089.03;4880599;29;45371;-63
2022/07/26 00:23:21;;;;;;;;;1.00;1.00;;;;;23.16;47.45;101094.38;4848216;29;45365;-63
2022/07/26 00:25:47;;;;;;;;;1.25;1.25;;;;;23.15;47.04;101096.34;4847289;29;45764;-63
2022/07/26 00:28:12;;;;;;;;;1.50;1.00;;;;;23.23;46.83;101099.66;4880191;29;45351;-63
2022/07/26 00:30:38;;;;;;;;;2.00;1.00;;;;;23.08;46.98;101069.78;4880182;29;45443;-62
2022/07/26 00:33:04;;;;;;;;;2.00;0.75;;;;;23.08;46.88;101081.81;4863638;29;45604;-63
2022/07/26 00:35:30;;;;;;;;;1.00;1.00;;;;;23.20;46.97;101101.06;4862986;29;45654;-63
2022/07/26 00:37:55;;;;;;;;;2.50;1.50;;;;;23.11;47.16;101084.03;4863100;29;45289;-63
2022/07/26 00:40:20;;;;;;;;;0.25;0.25;;;;;23.10;46.86;101092.75;4880274;29;45937;-63
2022/07/26 00:42:46;;;;;;;;;1.00;0.50;;;;;23.11;47.11;101092.44;4880094;29;45312;-62
2022/07/26 00:45:12;;;;;;;;;0.25;0.25;;;;;22.95;47.00;101062.88;4863016;29;46426;-62
2022/07/26 00:47:37;;;;;;;;;1.25;1.25;;;;;23.09;46.94;101103.09;4880295;29;45380;-62
2022/07/26 00:50:07;;;;;;;;;0.00;0.00;;;;;23.02;47.09;101094.19;4863323;29;45379;-64
2022/07/26 00:52:33;;;;;;;;;0.00;0.00;;;;;23.04;47.25;101094.72;4863881;29;45616;-63
2022/07/26 00:54:58;;;;;;;;;0.00;0.00;;;;;23.03;46.87;101095.84;4864925;29;45328;-64
2022/07/26 00:57:24;;;;;;;;;0.25;0.00;;;;;22.96;47.26;101092.53;4866259;29;45470;-64
2022/07/26 00:59:50;;;;;;;;;0.75;0.75;;;;;22.90;47.26;101093.66;4882937;29;45310;-63
2022/07/26 01:02:15;;;;;;;;;1.00;1.00;;;;;22.86;47.60;101087.81;4867039;29;45240;-64
2022/07/26 01:04:43;;;;;;;;;1.00;1.00;;;;;22.83;47.46;101092.03;4850341;29;45476;-63
2022/07/26 01:07:08;;;;;;;;;4.00;0.80;;;;;22.75;47.46;101075.84;4866217;29;45501;-63
2022/07/26 01:09:34;;;;;;;;;0.00;0.00;;;;;22.82;47.73;101095.94;4850722;29;45542;-61
2022/07/26 01:12:00;;;;;;;;;0.00;0.00;;;;;22.76;47.38;101091.50;4883049;29;45372;-63
2022/07/26 01:14:25;;;;;;;;;1.00;0.50;;;;;22.60;47.77;101063.59;4865951;29;45570;-63
2022/07/26 01:16:51;;;;;;;;;1.00;1.00;;;;;22.70;47.80;101075.84;4878802;29;45514;-63
2022/07/26 01:19:17;;;;;;;;;0.75;0.00;;;;;22.56;47.68;101054.09;4827024;29;45942;-62
2022/07/26 01:21:42;;;;;;;;;0.00;0.00;;;;;22.74;47.89;101077.78;4863890;29;45455;-63
2022/07/26 01:24:07;;;;;;;;;1.75;1.75;;;;;22.71;48.08;101085.91;4862577;29;47053;-63
2022/07/26 01:26:33;;;;;;;;;0.25;0.25;;;;;22.58;48.47;101068.63;4863949;29;45347;-64
2022/07/26 01:28:59;;;;;;;;;1.00;1.00;;;;;22.56;48.53;101084.84;4847016;29;45418;-64
2022/07/26 01:31:24;;;;;;;;;0.00;0.00;;;;;22.52;48.45;101080.13;4864200;29;45257;-63
2022/07/26 01:33:50;;;;;;;;;0.50;0.50;;;;;22.50;48.68;101085.97;4846851;29;48000;-64
2022/07/26 01:36:15;;;;;;;;;1.00;1.00;;;;;22.48;48.55;101082.63;4831786;29;45252;-63
2022/07/26 01:38:41;;;;;;;;;1.75;1.75;;;;;22.28;48.98;101063.94;4864174;29;45316;-63
2022/07/26 01:41:06;;;;;;;;;0.25;0.25;;;;;22.27;49.22;101073.44;4847286;29;45166;-63
2022/07/26 01:43:32;;;;;;;;;1.25;0.50;;;;;21.92;49.61;101062.91;4847097;29;46034;-63
2022/07/26 01:45:57;;;;;;;;;3.00;0.00;;;;;22.06;49.98;101074.34;4863516;29;45318;-63
2022/07/26 01:48:23;;;;;;;;;1.00;1.00;;;;;21.94;50.07;101076.59;4831736;29;45486;-64
2022/07/26 01:50:48;;;;;;;;;0.00;0.00;;;;;21.87;49.88;101054.50;4847489;29;45510;-64
2022/07/26 01:53:14;;;;;;;;;0.00;0.00;;;;;22.04;49.99;101076.56;4846823;29;45531;-63
2022/07/26 01:55:39;;;;;;;;;2.00;0.50;;;;;21.85;50.09;101050.31;4863304;29;45462;-63
2022/07/26 01:58:05;;;;;;;;;1.25;0.00;;;;;21.85;50.18;101044.72;4847019;29;45250;-64
2022/07/26 02:00:31;;;;;;;;;0.00;0.00;;;;;22.07;50.01;101080.75;4847037;29;45389;-63
2022/07/26 02:02:56;;;;;;;;;1.60;1.20;;;;;22.03;50.05;101083.28;4846544;29;46658;-62
2022/07/26 02:05:22;;;;;;;;;0.00;0.00;;;;;21.89;50.14;101045.84;4846510;29;45734;-64
2022/07/26 02:07:47;;;;;;;;;1.50;0.00;;;;;21.91;49.95;101052.00;4861952;29;45441;-62
2022/07/26 02:10:13;;;;;;;;;1.00;1.00;;;;;22.08;49.93;101082.44;4846475;29;45665;-62
2022/07/26 02:12:39;;;;;;;;;0.00;0.00;;;;;21.89;49.74;101051.44;4846031;29;45388;-62
2022/07/26 02:15:05;;;;;;;;;0.00;0.00;;;;;21.93;49.45;101055.38;4863062;29;45396;-64
2022/07/26 02:17:30;;;;;;;;;0.00;0.00;;;;;22.04;50.12;101082.16;4846599;29;45990;-63
2022/07/26 02:19:56;;;;;;;;;0.00;0.00;;;;;21.92;50.37;101064.84;4846630;29;45370;-63
2022/07/26 02:22:21;;;;;;;;;1.00;1.00;;;;;21.96;50.53;101079.94;4862453;29;45647;-62
2022/07/26 02:24:47;;;;;;;;;2.00;1.00;;;;;21.75;50.54;101059.53;4862853;29;45471;-63
2022/07/26 02:27:13;;;;;;;;;3.00;2.00;;;;;21.92;50.76;101087.19;4861688;29;45458;-63
2022/07/26 02:29:39;;;;;;;;;2.00;0.00;;;;;21.77;51.01;101077.72;4861639;29;45694;-62
2022/07/26 02:32:05;;;;;;;;;1.00;1.00;;;;;21.70;51.15;101077.16;4861549;29;46764;-62
2022/07/26 02:34:30;;;;;;;;;1.00;1.00;;;;;21.76;51.33;101084.41;4845953;29;45345;-63
2022/07/26 02:36:56;;;;;;;;;1.00;1.00;;;;;21.59;51.50;101056.75;4836049;29;46254;-63
2022/07/26 02:39:26;;;;;;;;;0.50;0.50;;;;;21.71;51.51;101091.97;4881551;29;45650;-63
2022/07/26 02:41:55;;;;;;;;;0.20;0.20;;;;;21.48;52.23;101078.25;4850218;29;45331;-62
2022/07/26 02:44:20;;;;;;;;;0.80;0.80;;;;;21.47;52.13;101065.41;4881231;29;45229;-63
2022/07/26 02:46:46;;;;;;;;;1.00;0.25;;;;;21.40;52.74;101082.41;4864514;29;45494;-64
2022/07/26 02:49:11;;;;;;;;;1.00;1.00;;;;;21.39;52.41;101068.72;4881540;29;45846;-62
2022/07/26 02:51:37;;;;;;;;;3.00;1.00;;;;;21.53;52.66;101091.34;4881007;29;45566;-62
2022/07/26 02:54:03;;;;;;;;;3.00;2.00;;;;;21.55;52.55;101091.09;4848947;29;45338;-63
2022/07/26 02:56:28;;;;;;;;;1.50;1.50;;;;;21.52;52.49;101086.91;4881203;29;45373;-63
2022/07/26 02:58:54;;;;;;;;;2.50;1.00;;;;;21.52;52.58;101089.69;4881184;29;45500;-63
2022/07/26 03:01:19;;;;;;;;;1.00;1.00;;;;;21.47;52.63;101092.47;4880641;29;45649;-63
2022/07/26 03:03:45;;;;;;;;;2.00;1.00;;;;;21.45;52.53;101092.72;4848732;29;45405;-63
2022/07/26 03:06:10;;;;;;;;;2.25;1.00;;;;;21.16;53.41;101078.44;4880973;29;45585;-63
2022/07/26 03:08:36;;;;;;;;;2.25;1.00;;;;;21.24;53.36;101095.50;4864664;29;45439;-63
2022/07/26 03:11:01;;;;;;;;;1.25;0.00;;;;;21.12;53.19;101073.44;4880749;29;46667;-62
2022/07/26 03:13:27;;;;;;;;;0.75;0.75;;;;;21.16;53.16;101058.91;4881213;29;45455;-63
2022/07/26 03:15:52;;;;;;;;;1.00;1.00;;;;;21.24;53.52;101094.69;4881350;29;45358;-63
2022/07/26 03:18:18;;;;;;;;;0.00;0.00;;;;;21.20;54.17;101094.38;4881351;29;45610;-62
2022/07/26 03:20:43;;;;;;;;;0.75;0.50;;;;;21.16;53.81;101093.25;4864228;29;46577;-62
2022/07/26 03:23:08;;;;;;;;;0.00;0.00;;;;;21.19;53.57;101106.63;4864010;29;45470;-62
2022/07/26 03:25:34;;;;;;;;;1.00;1.00;;;;;21.24;53.41;101098.28;4881171;29;45376;-62
2022/07/26 03:27:59;;;;;;;;;1.00;1.00;;;;;21.32;53.48;101101.66;4863901;29;45563;-62
2022/07/26 03:30:25;;;;;;;;;0.75;0.75;;;;;21.32;53.37;101104.44;4864207;29;45418;-64
2022/07/26 03:32:50;;;;;;;;;3.25;1.00;;;;;21.23;53.36;101096.63;4848382;29;45355;-64
2022/07/26 03:35:16;;;;;;;;;2.50;1.00;;;;;21.20;53.39;101096.34;4863853;29;45453;-62
2022/07/26 03:37:41;;;;;;;;;1.25;1.25;;;;;21.01;53.57;101070.91;4864231;29;45425;-62
2022/07/26 03:40:07;;;;;;;;;0.75;0.75;;;;;20.99;53.79;101066.41;4880810;29;45597;-63
2022/07/26 03:42:34;;;;;;;;;0.20;0.20;;;;;21.17;53.68;101105.28;4880557;29;45404;-62
2022/07/26 03:44:59;;;;;;;;;1.80;1.80;;;;;21.20;53.66;101108.34;4863977;29;45402;-63
2022/07/26 03:47:24;;;;;;;;;1.00;1.00;;;;;21.28;53.73;101112.53;4881178;29;45371;-63
2022/07/26 03:49:50;;;;;;;;;1.75;1.75;;;;;21.15;54.15;101113.91;4880621;29;45949;-63
2022/07/26 03:52:15;;;;;;;;;1.00;1.00;;;;;21.15;54.15;101115.84;4880434;29;45341;-63
2022/07/26 03:54:41;;;;;;;;;1.25;1.00;;;;;21.22;54.13;101108.91;4864051;29;45280;-63
2022/07/26 03:57:06;;;;;;;;;1.50;1.00;;;;;21.33;53.89;101115.34;4880958;29;45355;-63
2022/07/26 03:59:32;;;;;;;;;1.25;1.25;;;;;21.08;54.30;101089.03;4880423;29;45567;-63
2022/07/26 04:01:57;;;;;;;;;1.50;1.50;;;;;21.06;54.69;101113.59;4880201;29;45294;-63
2022/07/26 04:04:23;;;;;;;;;5.75;1.25;;;;;21.14;54.44;101123.41;4880680;29;45813;-63
2022/07/26 04:06:48;;;;;;;;;2.00;2.00;;;;;21.20;54.37;101119.50;4880249;29;45509;-63
2022/07/26 04:09:14;;;;;;;;;1.00;1.00;;;;;21.13;54.82;101118.91;4863202;29;46586;-64
2022/07/26 04:11:41;;;;;;;;;1.00;1.00;;;;;21.17;54.75;101111.66;4879959;29;45399;-63
2022/07/26 04:14:07;;;;;;;;;2.00;2.00;;;;;20.99;54.90;101102.69;4880400;29;45870;-64
2022/07/26 04:16:32;;;;;;;;;0.00;0.00;;;;;20.99;54.76;101085.94;4863873;29;45917;-64
2022/07/26 04:18:57;;;;;;;;;1.50;1.00;;;;;21.16;54.22;101106.34;4863160;29;45409;-64
2022/07/26 04:21:23;;;;;;;;;1.75;1.75;;;;;21.27;54.16;101108.06;4880094;29;45359;-63
2022/07/26 04:23:49;;;;;;;;;4.50;2.00;;;;;21.36;54.25;101120.34;4863319;29;45331;-63
2022/07/26 04:26:14;;;;;;;;;4.00;2.50;;;;;21.37;54.45;101113.69;4847997;29;45825;-63
2022/07/26 04:28:40;;;;;;;;;3.50;2.25;;;;;21.37;54.20;101110.91;4879405;29;45645;-64
2022/07/26 04:31:05;;;;;;;;;1.00;1.00;;;;;21.45;54.22;101120.66;4866535;29;45413;-64
2022/07/26 04:33:31;;;;;;;;;2.00;2.00;;;;;21.29;54.25;101082.69;4866212;29;45345;-63
2022/07/26 04:35:57;;;;;;;;;2.00;2.00;;;;;21.42;54.42;101110.06;4883161;29;45433;-63
2022/07/26 04:38:23;;;;;;;;;2.00;2.00;;;;;21.44;54.26;101107.81;4882912;29;45645;-64
2022/07/26 04:40:49;;;;;;;;;0.75;0.75;;;;;21.45;54.10;101108.66;4883288;29;45417;-64
2022/07/26 04:43:14;;;;;;;;;1.60;1.60;;;;;21.49;54.41;101115.34;4883014;29;45355;-62
2022/07/26 04:45:39;;;;;;;;;2.00;1.00;;;;;21.44;54.30;101132.94;4883188;29;45610;-63
2022/07/26 04:48:05;;;;;;;;;1.00;1.00;;;;;21.47;54.43;101128.75;4882780;29;45334;-63
2022/07/26 04:50:31;;;;;;;;;2.40;1.80;;;;;21.46;54.33;101116.75;4866069;29;45498;-62
2022/07/26 04:52:56;;;;;;;;;1.75;1.00;;;;;21.55;54.44;101122.63;4882801;29;45440;-63
2022/07/26 04:55:22;;;;;;;;;2.75;1.50;;;;;21.54;54.32;101115.38;4866428;29;45423;-63
2022/07/26 04:57:48;;;;;;;;;1.50;1.50;;;;;21.63;54.21;101135.22;4850413;29;45821;-62
2022/07/26 05:00:15;;;;;;;;;2.00;1.75;;;;;21.60;54.32;101133.00;4850173;29;45898;-62
2022/07/26 05:02:41;;;;;;;;;1.20;0.20;;;;;21.51;54.30;101111.19;4865926;29;45672;-62
2022/07/26 05:05:07;;;;;;;;;3.00;1.00;;;;;21.65;54.26;101135.75;4866339;29;45372;-64
2022/07/26 05:07:42;;;;;;;;;1.00;1.00;;;;;21.56;53.94;101112.31;4850387;29;46636;-63
2022/07/26 05:10:08;;;;;;;;;2.00;2.00;;;;;21.59;54.68;101148.91;4882642;29;45333;-62
2022/07/26 05:12:34;;;;;;;;;2.20;1.60;;;;;21.61;54.41;101145.84;4882544;29;45379;-63
2022/07/26 05:14:59;;;;;;;;;1.00;1.00;;;;;21.61;54.51;101151.41;4882684;29;45279;-63
2022/07/26 05:17:25;;;;;;;;;1.50;1.50;;;;;21.50;54.82;101151.38;4882551;29;46464;-64
2022/07/26 05:19:51;;;;;;;;;2.20;1.00;;;;;21.53;55.21;101153.66;4850289;29;45437;-63
2022/07/26 05:22:16;;;;;;;;;4.25;2.00;;;;;21.46;55.14;101153.03;4837495;28;45521;-63
2022/07/26 05:24:42;;;;;;;;;2.50;2.50;;;;;21.52;55.17;101157.53;4879132;29;45437;-62
2022/07/26 05:27:07;;;;;;;;;4.00;3.00;;;;;21.47;55.14;101157.53;4882193;29;46367;-63
2022/07/26 05:29:33;;;;;;;;;3.50;2.75;;;;;21.48;55.34;101164.78;4882371;29;45344;-63
2022/07/26 05:31:59;;;;;;;;;2.25;1.50;;;;;21.51;54.83;101157.81;4882376;29;45387;-62
2022/07/26 05:34:24;;;;;;;;;2.50;2.50;;;;;21.43;55.11;101161.97;4882290;29;45620;-62
2022/07/26 05:36:50;;;;;;;;;2.75;1.25;;;;;21.47;55.00;101162.28;4882171;29;46393;-63
2022/07/26 05:39:15;;;;;;;;;2.50;2.50;;;;;21.38;55.78;101173.13;4865131;29;45442;-63
2022/07/26 05:41:41;;;;;;;;;2.50;1.00;;;;;21.39;55.48;101163.63;4881402;29;45366;-63
2022/07/26 05:44:06;;;;;;;;;3.00;2.00;;;;;21.35;55.53;101157.75;4865501;29;45411;-63
2022/07/26 05:46:32;;;;;;;;;3.00;2.00;;;;;21.19;55.25;101133.72;4882243;29;45885;-63
2022/07/26 05:48:57;;;;;;;;;1.75;1.75;;;;;21.35;55.15;101148.56;4881496;29;45229;-63
2022/07/26 05:51:23;;;;;;;;;2.00;2.00;;;;;21.42;54.98;101148.28;4865297;29;45263;-63
2022/07/26 05:53:48;;;;;;;;;2.25;2.25;;;;;21.55;54.91;101158.09;4882454;29;45292;-63
2022/07/26 05:56:14;;;;;;;;;1.75;1.75;;;;;21.55;54.91;101150.56;4881859;29;46615;-63
2022/07/26 05:58:39;;;;;;;;;2.25;2.00;;;;;21.53;55.14;101161.16;4881682;29;45455;-62
2022/07/26 06:01:05;;;;;;;;;3.75;2.00;;;;;21.60;55.13;101160.91;4881786;29;45362;-62
2022/07/26 06:03:31;;;;;;;;;5.00;2.00;;;;;21.62;54.91;101161.47;4882104;29;45383;-62
2022/07/26 06:05:57;;;;;;;;;3.60;2.00;;;;;21.66;54.80;101170.94;4881519;29;45601;-62
2022/07/26 06:08:23;;;;;;;;;4.25;2.25;;;;;21.52;54.70;101149.16;4865106;29;45773;-63
2022/07/26 06:10:49;;;;;;;;;4.00;2.20;;;;;21.65;55.01;101166.47;4865422;29;45378;-63
2022/07/26 06:13:14;;;;;;;;;2.50;2.50;;;;;21.64;55.05;101176.84;4865103;29;45485;-63
2022/07/26 06:15:41;;;;;;;;;2.00;2.00;;;;;21.62;54.94;101176.25;4881702;29;46430;-62
2022/07/26 06:18:06;;;;;;;;;2.40;2.40;;;;;21.66;55.09;101180.19;4882215;29;45308;-62
2022/07/26 06:20:32;;;;;;;;;3.75;2.75;;;;;21.64;54.93;101176.84;4882071;29;45336;-63
2022/07/26 06:22:58;;;;;;;;;2.00;2.00;;;;;21.60;54.96;101188.84;4865153;29;45541;-63
2022/07/26 06:25:24;;;;;;;;;4.00;2.75;;;;;21.46;54.95;101161.41;4849420;29;46701;-64
2022/07/26 06:27:50;;;;;;;;;5.20;3.60;;;;;21.67;55.35;101192.19;4849530;29;45417;-63
2022/07/26 06:30:15;;;;;;;;;1.75;1.75;;;;;21.70;55.16;101186.09;4865026;29;45588;-63
2022/07/26 06:32:43;;;;;;;;;4.25;3.00;;;;;21.70;54.86;101177.69;4882165;29;45525;-63
2022/07/26 06:35:12;;;;;;;;;2.60;2.20;;;;;21.72;54.89;101191.41;4865027;29;46742;-63
2022/07/26 06:37:37;;;;;;;;;4.20;4.00;;;;;21.66;55.01;101185.75;4864558;29;45262;-63
2022/07/26 06:40:04;;;;;;;;;4.75;4.00;;;;;21.56;55.14;101162.56;4881771;29;45204;-62
2022/07/26 06:42:31;;;;;;;;;3.80;3.00;;;;;21.72;54.98;101195.00;4865097;29;45260;-62
2022/07/26 06:44:57;;;;;;;;;3.20;1.60;;;;;21.55;55.12;101172.06;4880974;29;45370;-62
2022/07/26 06:47:23;;;;;;;;;3.00;2.00;;;;;21.64;55.14;101196.38;4849382;29;45960;-62
2022/07/26 06:49:48;;;;;;;;;1.75;1.75;;;;;21.47;54.88;101145.50;4864463;29;45400;-63
2022/07/26 06:52:14;;;;;;;;;2.00;2.00;;;;;21.84;54.95;101191.97;4849122;29;45388;-64
2022/07/26 06:54:39;;;;;;;;;4.50;2.00;;;;;21.82;54.82;101188.59;4864207;29;46235;-64
2022/07/26 06:57:05;;;;;;;;;3.00;3.00;;;;;21.83;54.74;101190.31;4849009;29;45498;-62
2022/07/26 06:59:30;;;;;;;;;2.25;2.25;;;;;21.87;54.80;101187.78;4849111;29;46074;-63
2022/07/26 07:01:55;;;;;;;;;3.00;2.50;;;;;21.84;54.67;101177.16;4881235;29;45731;-62
2022/07/26 07:04:21;;;;;;;;;4.25;3.75;;;;;21.67;55.14;101153.94;4864363;29;47220;-63
2022/07/26 07:06:46;;;;;;;;;1.75;1.75;;;;;21.76;54.66;101173.81;4811401;28;47546;-62
2022/07/26 07:09:12;;;;;;;;;4.25;2.00;;;;;21.86;54.97;101180.50;4869640;29;45427;-62
2022/07/26 07:11:37;;;;;;;;;4.75;3.50;;;;;21.82;54.92;101176.59;4881036;29;45352;-63
2022/07/26 07:14:03;;;;;;;;;3.50;2.75;;;;;21.84;54.41;101178.00;4880826;29;46420;-63
2022/07/26 07:16:28;;;;;;;;;2.00;2.00;;;;;21.73;54.46;101171.56;4881198;29;45432;-64
2022/07/26 07:18:54;;;;;;;;;3.00;3.00;;;;;21.98;54.60;101200.63;4880846;29;45348;-64
2022/07/26 07:21:19;;;;;;;;;4.00;4.00;;;;;22.01;54.55;101205.69;4881026;29;45535;-64
2022/07/26 07:23:45;;;;;;;;;3.25;3.25;;;;;21.89;54.49;101178.00;4880851;29;45532;-64
2022/07/26 07:26:11;;;;;;;;;3.25;3.25;;;;;22.09;54.46;101195.88;4864187;29;45351;-63
2022/07/26 07:28:37;;;;;;;;;4.20;3.20;;;;;22.14;53.78;101198.69;4848594;29;45463;-62
2022/07/26 07:31:06;;;;;;;;;2.80;2.00;;;;;22.16;53.77;101198.41;4881231;29;45564;-64
2022/07/26 07:33:31;;;;;;;;;2.40;2.40;;;;;22.15;53.99;101203.16;4864314;29;46268;-64
2022/07/26 07:35:57;;;;;;;;;2.50;1.50;;;;;22.19;53.68;101206.22;4863436;29;45409;-64
2022/07/26 07:38:22;;;;;;;;;6.00;3.00;;;;;22.24;53.98;101202.63;4880862;29;45363;-64
2022/07/26 07:40:48;;;;;;;;;3.50;3.50;;;;;22.21;53.77;101204.00;4863671;29;45335;-65
2022/07/26 07:43:14;;;;;;;;;2.25;1.00;;;;;22.15;53.47;101199.53;4863452;29;47015;-68
2022/07/26 07:45:39;;;;;;;;;4.75;4.75;;;;;22.14;53.66;101200.66;4880064;29;45380;-68
2022/07/26 07:48:05;;;;;;;;;3.00;3.00;;;;;21.95;53.55;101162.09;4880759;29;45379;-63
2022/07/26 07:50:31;;;;;;;;;4.00;3.00;;;;;22.26;53.52;101212.41;4880662;29;45233;-62
2022/07/26 07:52:57;;;;;;;;;2.80;2.40;;;;;22.32;53.17;101202.03;4863213;29;45512;-63
2022/07/26 07:55:22;;;;;;;;;4.50;3.50;;;;;22.39;52.79;101207.34;4880291;29;45775;-63
2022/07/26 07:57:48;;;;;;;;;2.75;2.75;;;;;22.44;52.75;101207.34;4880344;29;45419;-63
2022/07/26 08:00:15;;;;;;;;;1.00;1.00;;;;;22.23;52.68;101171.03;4863386;29;45490;-63
2022/07/26 08:02:41;;;;;;;;;3.00;3.00;;;;;22.44;52.57;101211.00;4863826;29;47193;-64
2022/07/26 08:05:08;;;;;;;;;4.25;4.25;;;;;22.44;52.27;101204.53;4865130;29;45681;-64
2022/07/26 08:07:34;;;;;;;;;1.60;1.00;;;;;22.53;52.18;101204.84;4841133;29;48236;-63
2022/07/26 08:09:59;;;;;;;;;3.00;2.00;;;;;22.59;51.92;101198.97;4866827;29;45429;-62
2022/07/26 08:12:24;;;;;;;;;2.50;2.50;;;;;22.70;51.53;101216.56;4883487;29;46663;-62
2022/07/26 08:14:50;;;;;;;;;3.75;3.25;;;;;22.73;51.44;101203.97;4883658;29;45383;-63
2022/07/26 08:17:15;;;;;;;;;4.00;4.00;;;;;22.66;51.33;101181.03;4883510;29;45338;-63
2022/07/26 08:19:41;;;;;;;;;2.75;2.75;;;;;22.90;50.79;101211.19;4883806;29;45573;-62
2022/07/26 08:22:07;;;;;;;;;4.75;3.00;;;;;22.94;50.95;101206.72;4866695;29;45580;-64
2022/07/26 08:24:33;;;;;;;;;2.60;2.60;;;;;22.91;51.20;101204.47;4883120;29;45396;-62
2022/07/26 08:26:58;;;;;;;;;4.50;4.50;;;;;22.81;51.19;101196.94;4866654;29;45511;-64
2022/07/26 08:29:24;;;;;;;;;2.25;2.00;;;;;22.90;51.15;101206.47;4851332;29;45629;-63
2022/07/26 08:31:51;;;;;;;;;3.00;3.00;;;;;22.87;51.20;101218.19;4883499;29;46556;-63
2022/07/26 08:34:17;;;;;;;;;3.00;3.00;;;;;22.83;51.29;101217.94;4866347;29;45367;-62
2022/07/26 08:36:43;;;;;;;;;4.20;3.20;;;;;22.87;50.81;101212.59;4866361;29;45469;-63
2022/07/26 08:39:09;;;;;;;;;3.40;3.40;;;;;22.85;50.64;101215.69;4866602;29;45654;-63
2022/07/26 08:41:35;;;;;;;;;3.00;3.00;;;;;22.81;50.50;101216.53;4882527;29;45770;-63
2022/07/26 08:44:08;;;;;;;;;4.20;4.00;;;;;22.81;50.91;101227.72;4883334;29;45383;-63
2022/07/26 08:46:37;;;;;;;;;2.20;1.80;;;;;22.81;50.51;101220.19;4882920;29;45398;-64
2022/07/26 08:49:04;;;;;;;;;2.20;2.20;;;;;22.86;50.44;101216.53;4844908;29;45969;-65
2022/07/26 08:51:30;;;;;;;;;3.60;2.20;;;;;22.90;50.31;101228.84;4877713;29;46720;-64
2022/07/26 08:53:57;;;;;;;;;5.00;4.00;;;;;22.84;50.08;101216.81;4864113;29;45361;-65
2022/07/26 08:56:22;;;;;;;;;5.00;3.60;;;;;22.88;50.33;101220.72;4850466;29;45353;-63
2022/07/26 08:58:48;;;;;;;;;3.25;3.25;;;;;22.90;50.39;101226.03;4883414;29;45459;-63
2022/07/26 09:01:14;;;;;;;;;3.25;3.25;;;;;22.91;49.96;101222.13;4882355;29;46491;-64
2022/07/26 09:03:43;;;;;;;;;3.75;3.00;;;;;22.74;50.31;101200.88;4882692;29;45355;-64
2022/07/26 09:06:18;;;;;;;;;4.00;4.00;;;;;22.75;50.55;101204.53;4864852;29;45542;-64
2022/07/26 09:08:45;;;;;;;;;5.00;3.00;;;;;22.79;50.43;101202.00;4869849;29;46402;-65
2022/07/26 09:11:23;;;;;;;;;4.20;3.20;;;;;22.78;50.74;101215.13;4861577;29;46720;-65
2022/07/26 09:13:53;;;;;;;;;6.00;5.40;;;;;22.90;50.76;101245.63;4879557;29;45377;-64
2022/07/26 09:16:19;;;;;;;;;6.60;4.40;;;;;22.61;50.73;101202.31;4856263;29;45367;-65
2022/07/26 09:18:45;;;;;;;;;2.80;2.20;;;;;22.78;50.62;101236.69;4863557;29;46786;-63
2022/07/26 09:21:30;;;;;;;;;5.25;2.75;;;;;22.56;51.14;101243.44;4864976;29;45533;-65
2022/07/26 09:23:55;;;;;;;;;3.20;3.00;;;;;22.44;51.40;101246.50;4881380;29;45330;-63
2022/07/26 09:26:21;;;;;;;;;3.75;2.50;;;;;22.36;51.66;101213.50;4881263;29;45722;-63
2022/07/26 09:29:03;;;;;;;;;3.00;2.00;;;;;22.45;51.73;101240.63;4881005;29;45802;-63
2022/07/26 09:31:28;;;;;;;;;2.60;2.60;;;;;22.58;51.57;101235.63;4866403;29;46032;-61
2022/07/26 09:33:54;;;;;;;;;4.50;2.00;;;;;22.43;51.10;101217.69;4863846;29;45400;-63
2022/07/26 09:36:20;;;;;;;;;2.00;1.00;;;;;22.45;50.57;101225.78;4881576;29;45317;-63
2022/07/26 09:38:48;;;;;;;;;1.60;1.60;;;;;22.63;50.36;101249.59;4865378;29;45569;-62
2022/07/26 09:41:23;;;;;;;;;4.60;3.60;;;;;22.72;50.73;101253.50;4879171;29;45903;-64
2022/07/26 09:43:49;;;;;;;;;3.60;3.00;;;;;22.79;50.10;101250.38;4864749;29;45754;-64
2022/07/26 09:46:15;;;;;;;;;4.00;3.00;;;;;22.79;50.05;101233.59;4848424;29;45461;-62
2022/07/26 09:48:41;;;;;;;;;2.00;2.00;;;;;23.02;49.68;101250.91;4833118;29;46092;-65
2022/07/26 09:51:07;;;;;;;;;3.50;3.50;;;;;23.12;48.75;101250.84;4881932;29;45650;-65
2022/07/26 09:53:39;;;;;;;;;3.00;2.00;;;;;23.12;48.28;101255.63;4863569;29;45427;-66
2022/07/26 09:56:05;;;;;;;;;2.20;1.00;;;;;23.00;48.42;101231.59;4882381;29;45475;-65
2022/07/26 09:58:31;;;;;;;;;2.00;2.00;;;;;23.25;48.48;101260.63;4882825;29;45616;-65
2022/07/26 10:00:56;;;;;;;;;2.25;2.25;;;;;23.35;47.98;101248.59;4849605;29;45862;-64
2022/07/26 10:03:22;;;;;;;;;7.25;5.50;;;;;23.49;48.10;101265.63;4865508;29;45498;-66
2022/07/26 10:05:48;;;;;;;;;2.75;2.75;;;;;23.53;47.94;101258.28;4880402;29;45396;-63
2022/07/26 10:08:13;;;;;;;;;3.50;2.50;;;;;23.59;47.46;101263.88;4812479;29;45886;-66
2022/07/26 10:10:42;;;;;;;;;2.50;2.50;;;;;23.51;47.30;101259.69;4871617;29;45558;-66
2022/07/26 10:13:08;;;;;;;;;3.00;3.00;;;;;23.61;47.47;101258.81;4849474;29;45437;-65
2022/07/26 10:15:36;;;;;;;;;4.25;4.25;;;;;23.51;46.96;101246.56;4849374;29;45354;-67
2022/07/26 10:18:04;;;;;;;;;3.60;2.60;;;;;23.58;46.66;101253.81;4880496;29;45441;-64
2022/07/26 10:20:45;;;;;;;;;3.80;2.80;;;;;23.66;46.46;101262.44;4849396;29;46006;-64
2022/07/26 10:23:39;;;;;;;;;2.60;2.60;;;;;23.69;46.38;101263.81;4833734;29;45845;-64
2022/07/26 10:26:08;;;;;;;;;2.00;2.00;;;;;23.43;45.56;101230.34;4864839;29;45720;-65
2022/07/26 10:28:35;;;;;;;;;3.80;3.80;;;;;23.68;45.38;101260.19;4864508;29;45505;-63
2022/07/26 10:31:19;;;;;;;;;2.00;2.00;;;;;23.66;44.72;101262.44;4863363;29;45761;-66
2022/07/26 10:33:46;;;;;;;;;1.40;1.40;;;;;23.69;44.83;101263.81;4881345;29;45423;-65
2022/07/26 10:36:28;;;;;;;;;2.00;2.00;;;;;23.78;45.03;101256.50;4864488;29;45485;-65
2022/07/26 10:39:11;;;;;;;;;2.00;2.00;;;;;23.93;44.89;101257.50;4850027;29;45444;-65
2022/07/26 10:41:44;;;;;;;;;2.40;1.80;;;;;24.02;43.00;101266.97;4847947;29;46046;-65
2022/07/26 10:44:30;;;;;;;;;3.00;3.00;;;;;24.01;42.34;101261.66;4881495;29;45311;-65
2022/07/26 10:47:08;;;;;;;;;1.40;1.40;;;;;24.09;41.16;101269.50;4864234;29;45389;-64
2022/07/26 10:49:40;;;;;;;;;2.00;1.00;;;;;24.18;41.29;101266.91;4880892;29;45440;-68
2022/07/26 10:52:27;;;;;;;;;1.00;1.00;;;;;24.27;40.88;101258.72;4880462;29;46111;-64
2022/07/26 10:54:56;;;;;;;;;2.20;2.20;;;;;24.33;40.82;101258.38;4862987;29;45420;-66
2022/07/26 10:57:28;;;;;;;;;1.00;1.00;;;;;24.20;41.37;101234.66;4881257;29;45314;-65
2022/07/26 10:59:57;;;;;;;;;1.60;1.60;;;;;24.35;40.07;101258.06;4881051;29;45561;-63
2022/07/26 11:02:27;;;;;;;;;2.40;2.20;;;;;24.27;40.79;101244.69;4864200;29;46041;-64
2022/07/26 11:05:11;;;;;;;;;1.00;1.00;;;;;24.42;39.99;101249.31;4864410;29;45416;-64
2022/07/26 11:07:50;;;;;;;;;1.40;1.20;;;;;24.50;39.61;101251.50;4852282;29;45448;-67
2022/07/26 11:10:15;;;;;;;;;1.00;1.00;;;;;24.66;39.54;101257.81;4834344;29;45426;-65
2022/07/26 11:12:41;;;;;;;;;1.00;1.00;;;;;24.61;39.31;101232.59;4880760;29;45728;-66
2022/07/26 11:15:17;;;;;;;;;1.00;1.00;;;;;24.83;39.11;101256.53;4848583;29;45433;-65
2022/07/26 11:17:43;;;;;;;;;3.00;2.00;;;;;24.93;38.91;101247.16;4880701;29;45236;-65
2022/07/26 11:20:09;;;;;;;;;0.75;0.75;;;;;24.93;39.03;101249.97;4863121;29;45390;-67
2022/07/26 11:22:35;;;;;;;;;2.00;2.00;;;;;24.72;38.12;101208.91;4880482;29;46093;-65